createdAt,value
2018-09-14T00:00:53.893Z,4.80
2018-09-14T00:02:57.751Z,5.03
2018-09-14T00:05:01.803Z,4.60
2018-09-14T00:07:05.715Z,5.37
2018-09-14T00:09:11.709Z,5.03
2018-09-14T00:11:15.502Z,5.00
2018-09-14T00:13:19.355Z,4.43
2018-09-14T00:15:23.390Z,4.10
2018-09-14T00:17:27.228Z,4.60
2018-09-14T00:19:30.971Z,4.13
2018-09-14T00:21:34.730Z,4.40
2018-09-14T00:23:38.484Z,4.20
2018-09-14T00:25:42.480Z,5.00
2018-09-14T00:27:46.302Z,4.80
2018-09-14T00:29:50.092Z,4.57
2018-09-14T00:31:53.833Z,4.60
2018-09-14T00:33:57.617Z,4.70
2018-09-14T00:36:01.370Z,4.90
2018-09-14T00:38:05.159Z,5.00
2018-09-14T00:40:08.933Z,5.03
2018-09-14T00:42:12.685Z,6.00
2018-09-14T00:44:16.489Z,4.83
2018-09-14T00:46:20.275Z,5.47
2018-09-14T00:48:24.073Z,5.90
2018-09-14T00:50:27.892Z,5.57
2018-09-14T00:52:31.914Z,5.37
2018-09-14T00:54:35.731Z,5.37
2018-09-14T00:56:39.511Z,5.57
2018-09-14T00:58:43.345Z,5.97
2018-09-14T01:00:47.359Z,6.00
2018-09-14T01:02:51.179Z,5.77
2018-09-14T01:04:55.176Z,5.80
2018-09-14T01:06:59.204Z,5.07
2018-09-14T01:09:03.052Z,5.97
2018-09-14T01:11:06.949Z,5.53
2018-09-14T01:13:10.775Z,5.23
2018-09-14T01:15:14.526Z,5.00
2018-09-14T01:17:18.445Z,5.37
2018-09-14T01:19:22.233Z,6.10
2018-09-14T01:21:26.076Z,5.67
2018-09-14T01:23:29.830Z,5.33
2018-09-14T01:25:33.654Z,5.40
2018-09-14T01:27:37.473Z,5.53
2018-09-14T01:29:41.267Z,5.77
2018-09-14T01:31:45.045Z,5.23
2018-09-14T01:33:48.846Z,5.97
2018-09-14T01:35:58.006Z,5.73
2018-09-14T01:38:01.902Z,6.40
2018-09-14T01:40:05.798Z,6.47
2018-09-14T01:42:09.722Z,6.07
2018-09-14T01:44:13.574Z,5.50
2018-09-14T01:46:17.474Z,6.00
2018-09-14T01:48:21.292Z,6.03
2018-09-14T01:50:25.054Z,6.37
2018-09-14T01:52:28.793Z,6.00
2018-09-14T01:54:32.551Z,6.33
2018-09-14T01:56:36.376Z,6.90
2018-09-14T01:58:40.156Z,6.60
2018-09-14T02:00:44.063Z,6.50
2018-09-14T02:02:47.825Z,7.20
2018-09-14T02:04:53.762Z,7.10
2018-09-14T02:06:57.692Z,6.60
2018-09-14T02:09:01.524Z,8.40
2018-09-14T02:11:05.321Z,8.47
2018-09-14T02:13:09.082Z,7.13
2018-09-14T02:15:12.875Z,7.43
2018-09-14T02:17:16.663Z,5.80
2018-09-14T02:19:20.443Z,7.07
2018-09-14T02:21:24.232Z,6.33
2018-09-14T02:23:28.011Z,6.13
2018-09-14T02:25:31.781Z,6.50
2018-09-14T02:27:35.545Z,6.87
2018-09-14T02:29:39.665Z,6.53
2018-09-14T02:31:43.478Z,6.30
2018-09-14T02:33:47.236Z,6.80
2018-09-14T02:35:51.034Z,7.10
2018-09-14T02:37:54.781Z,7.20
2018-09-14T02:39:58.558Z,6.60
2018-09-14T02:42:02.320Z,6.63
2018-09-14T02:44:06.223Z,7.00
2018-09-14T02:46:10.150Z,7.03
2018-09-14T02:48:13.960Z,7.70
2018-09-14T02:50:17.698Z,7.63
2018-09-14T02:52:21.465Z,7.93
2018-09-14T02:54:25.303Z,7.53
2018-09-14T02:56:29.065Z,7.77
2018-09-14T02:58:32.936Z,7.23
2018-09-14T03:00:36.849Z,7.20
2018-09-14T03:02:40.862Z,7.67
2018-09-14T03:04:44.654Z,7.63
2018-09-14T03:06:48.718Z,7.17
2018-09-14T03:08:52.748Z,7.60
2018-09-14T03:10:56.547Z,7.40
2018-09-14T03:13:00.390Z,8.33
2018-09-14T03:15:04.253Z,8.00
2018-09-14T03:17:08.063Z,7.47
2018-09-14T03:19:11.861Z,6.77
2018-09-14T03:21:15.805Z,6.30
2018-09-14T03:23:19.615Z,6.80
2018-09-14T03:25:23.496Z,6.37
2018-09-14T03:27:29.167Z,6.90
2018-09-14T03:29:33.184Z,6.33
2018-09-14T03:31:37.253Z,6.80
2018-09-14T03:33:41.223Z,7.07
2018-09-14T03:35:45.082Z,7.20
2018-09-14T03:37:48.877Z,7.63
2018-09-14T03:39:52.672Z,7.10
2018-09-14T03:41:56.484Z,7.10
2018-09-14T03:44:00.247Z,7.97
2018-09-14T03:46:04.028Z,8.33
2018-09-14T03:48:07.794Z,8.07
2018-09-14T03:50:11.976Z,7.60
2018-09-14T16:53:02.245Z,2.63
2018-09-14T16:55:06.547Z,2.63
2018-09-14T16:57:10.423Z,2.47
2018-09-14T16:59:14.253Z,2.57
2018-09-14T17:01:18.057Z,2.80
2018-09-14T17:03:21.864Z,2.63
2018-09-14T17:05:25.926Z,3.10
2018-09-14T17:07:29.802Z,2.77
2018-09-14T17:09:33.644Z,2.77
2018-09-14T17:11:37.889Z,2.47
2018-09-14T17:13:41.842Z,2.67
2018-09-14T17:15:45.626Z,3.20
2018-09-14T17:17:49.502Z,3.00
2018-09-14T17:19:53.321Z,2.90
2018-09-14T17:21:57.268Z,3.00
2018-09-14T17:24:03.382Z,2.83
2018-09-14T17:26:07.244Z,3.10
2018-09-14T17:28:11.153Z,3.03
2018-09-14T17:30:15.053Z,2.90
2018-09-14T17:32:19.250Z,2.57
2018-09-14T17:34:23.357Z,3.33
2018-09-14T17:36:27.339Z,2.90
2018-09-14T17:38:31.444Z,3.27
2018-09-14T17:40:35.400Z,3.00
2018-09-14T17:42:39.415Z,2.93
2018-09-14T17:44:43.713Z,3.37
2018-09-14T17:46:47.797Z,2.73
2018-09-14T17:48:51.560Z,3.63
2018-09-14T17:50:56.195Z,2.90
2018-09-14T17:53:00.060Z,3.10
2018-09-14T17:55:04.231Z,3.50
2018-09-14T17:57:08.473Z,3.17
2018-09-14T17:59:12.527Z,3.27
2018-09-14T18:01:16.520Z,3.67
2018-09-14T18:03:20.904Z,3.60
2018-09-14T18:05:26.926Z,3.60
2018-09-14T18:07:32.076Z,3.60
2018-09-14T18:09:35.991Z,3.90
2018-09-14T18:11:40.459Z,3.73
2018-09-14T18:13:44.931Z,3.53
2018-09-14T18:15:48.778Z,3.50
2018-09-14T18:17:52.640Z,4.03
2018-09-14T18:19:58.819Z,3.77
2018-09-14T18:22:03.900Z,3.50
2018-09-14T18:25:11.830Z,3.50
2018-09-14T18:27:15.674Z,4.07
2018-09-14T18:29:19.464Z,3.83
2018-09-14T18:31:23.475Z,4.20
2018-09-14T18:33:27.393Z,3.80
2018-09-14T18:35:31.335Z,4.40
2018-09-14T18:37:35.182Z,4.10
2018-09-14T18:39:39.092Z,3.60
2018-09-14T18:41:43.008Z,4.10
2018-09-14T18:43:47.904Z,4.00
2018-09-14T18:45:52.149Z,4.10
2018-09-14T18:47:55.999Z,4.30
2018-09-14T18:50:00.172Z,4.20
2018-09-14T18:52:03.995Z,3.67
2018-09-14T18:54:08.040Z,4.10
2018-09-14T18:56:12.154Z,4.20
2018-09-14T18:58:16.018Z,4.80
2018-09-14T19:00:19.923Z,5.00
2018-09-14T19:02:23.928Z,4.70
2018-09-14T19:04:27.835Z,4.83
2018-09-14T19:06:31.689Z,4.93
2018-09-14T19:08:35.853Z,4.50
2018-09-14T19:10:40.052Z,4.67
2018-09-14T19:12:44.573Z,4.90
2018-09-14T19:14:48.470Z,5.20
2018-09-14T19:16:53.016Z,3.83
2018-09-14T19:18:57.085Z,5.13
2018-09-14T19:21:01.401Z,5.28
2018-09-14T19:23:05.417Z,5.07
2018-09-14T19:25:09.237Z,5.10
2018-09-14T19:27:13.072Z,4.87
2018-09-14T19:29:17.005Z,4.83
2018-09-14T19:31:20.965Z,4.30
2018-09-14T19:33:24.907Z,4.50
2018-09-14T19:35:28.771Z,5.20
2018-09-14T19:37:32.588Z,5.00
2018-09-14T19:39:36.408Z,5.00
2018-09-14T19:41:40.579Z,4.70
2018-09-14T19:43:44.493Z,5.40
2018-09-14T19:45:49.378Z,5.20
2018-09-14T19:47:53.203Z,4.97
2018-09-14T19:49:57.415Z,5.10
2018-09-14T19:52:01.262Z,5.20
2018-09-14T19:54:05.155Z,5.77
2018-09-14T19:56:09.464Z,6.30
2018-09-14T19:58:13.384Z,5.67
2018-09-14T20:00:17.194Z,6.50
2018-09-14T20:02:21.150Z,5.50
2018-09-14T20:04:25.086Z,5.30
2018-09-14T20:06:29.039Z,5.43
2018-09-14T20:08:32.964Z,5.50
2018-09-14T20:10:36.816Z,5.40
2018-09-14T20:12:40.786Z,6.40
2018-09-14T20:14:44.775Z,5.77
2018-09-14T20:16:48.696Z,5.27
2018-09-14T20:18:52.722Z,6.07
2018-09-14T20:20:58.139Z,5.43
2018-09-14T20:23:02.240Z,5.70
2018-09-14T20:25:06.209Z,5.90
2018-09-14T20:27:10.133Z,5.53
2018-09-14T20:29:13.956Z,5.17
2018-09-14T20:31:17.724Z,5.10
2018-09-14T20:33:21.680Z,4.90
2018-09-14T20:35:25.481Z,4.60
2018-09-14T20:37:29.292Z,4.43
2018-09-14T20:39:33.382Z,3.90
2018-09-14T20:41:37.648Z,4.40
2018-09-14T20:43:41.652Z,4.27
2018-09-14T20:45:45.568Z,4.10
2018-09-14T20:47:49.451Z,3.60
2018-09-14T20:49:53.398Z,4.10
2018-09-14T20:51:57.257Z,3.90
2018-09-14T20:54:01.536Z,3.70
2018-09-14T20:56:05.933Z,3.50
2018-09-14T20:58:09.742Z,4.67
2018-09-14T21:00:17.173Z,4.10
2018-09-14T21:02:21.375Z,3.63
2018-09-14T21:04:25.339Z,3.73
2018-09-14T21:06:29.153Z,4.03
2018-09-14T21:08:33.384Z,3.67
2018-09-14T21:10:37.349Z,3.30
2018-09-14T21:12:41.214Z,3.60
2018-09-14T21:14:46.272Z,3.33
2018-09-14T21:16:50.202Z,3.60
2018-09-14T21:18:54.062Z,3.40
2018-09-14T21:20:57.890Z,3.47
2018-09-14T21:23:01.695Z,2.80
2018-09-14T21:25:05.589Z,3.30
2018-09-14T21:27:09.882Z,4.00
2018-09-14T21:29:13.880Z,3.37
2018-09-14T21:31:18.991Z,3.27
2018-09-14T21:33:22.757Z,3.10
2018-09-14T21:35:26.786Z,3.00
2018-09-14T21:37:30.751Z,2.83
2018-09-14T21:39:34.632Z,4.00
2018-09-14T21:41:38.472Z,3.73
2018-09-14T21:43:43.474Z,3.33
2018-09-14T21:45:47.829Z,3.10
2018-09-14T21:47:51.783Z,4.07
2018-09-14T21:49:55.532Z,4.00
2018-09-14T21:51:59.481Z,3.33
2018-09-14T21:54:03.764Z,3.10
2018-09-14T21:56:07.941Z,3.33
2018-09-14T21:58:11.889Z,3.43
2018-09-14T22:00:21.063Z,3.40
2018-09-14T22:02:24.947Z,3.23
2018-09-14T22:04:28.874Z,3.30
2018-09-14T22:06:33.026Z,3.20
2018-09-14T22:08:37.068Z,3.43
2018-09-14T22:10:40.905Z,3.23
2018-09-14T22:12:44.683Z,3.67
2018-09-14T22:14:48.494Z,3.30
2018-09-14T22:16:52.365Z,3.93
2018-09-14T22:18:56.169Z,3.70
2018-09-14T22:20:59.941Z,3.20
2018-09-14T22:23:03.755Z,3.60
2018-09-14T22:25:07.607Z,4.07
2018-09-14T22:27:11.439Z,3.00
2018-09-14T22:29:15.220Z,3.30
2018-09-14T22:31:19.022Z,3.07
2018-09-14T22:33:22.839Z,3.13
2018-09-14T22:35:26.649Z,3.13
2018-09-14T22:37:30.533Z,3.40
2018-09-14T22:39:34.486Z,2.90
2018-09-14T22:41:38.289Z,2.80
2018-09-14T22:43:42.225Z,2.93
2018-09-14T22:45:45.928Z,2.87
2018-09-14T22:47:49.820Z,3.17
2018-09-14T22:49:53.701Z,2.87
2018-09-14T22:51:57.495Z,2.80
2018-09-14T22:54:01.238Z,3.20
2018-09-14T22:56:05.426Z,2.97
2018-09-14T22:58:09.299Z,2.90
2018-09-14T23:00:17.401Z,3.33
2018-09-14T23:02:21.159Z,3.30
2018-09-14T23:04:24.947Z,3.57
2018-09-14T23:06:28.935Z,3.17
2018-09-14T23:08:32.707Z,3.22
2018-09-14T23:10:36.504Z,3.10
2018-09-14T23:12:40.259Z,3.27
2018-09-14T23:14:44.095Z,3.60
2018-09-14T23:16:47.882Z,4.33
2018-09-14T23:18:51.730Z,4.03
2018-09-14T23:20:55.577Z,4.10
2018-09-14T23:22:59.541Z,4.13
2018-09-14T23:25:03.346Z,4.10
2018-09-14T23:27:07.259Z,3.67
2018-09-14T23:29:11.117Z,3.60
2018-09-14T23:31:15.036Z,3.50
2018-09-14T23:33:18.832Z,2.97
2018-09-14T23:35:22.637Z,3.20
2018-09-14T23:37:26.503Z,3.23
2018-09-14T23:39:30.436Z,3.20
2018-09-14T23:41:34.333Z,3.07
2018-09-14T23:43:38.245Z,3.23
2018-09-14T23:45:42.004Z,3.70
2018-09-14T23:47:45.886Z,2.97
2018-09-14T23:49:49.734Z,3.13
2018-09-14T23:51:53.495Z,3.47
2018-09-14T23:53:57.288Z,3.30
2018-09-14T23:56:01.060Z,3.40
2018-09-14T23:58:04.838Z,3.30
